createdAt,value
2018-04-17T00:00:45.472Z,18.50
2018-04-17T00:01:51.830Z,16.00
2018-04-17T00:02:57.292Z,18.00
2018-04-17T00:04:05.894Z,19.00
2018-04-17T00:05:12.301Z,16.50
2018-04-17T00:06:17.784Z,15.50
2018-04-17T00:07:23.570Z,19.50
2018-04-17T00:08:28.432Z,14.00
2018-04-17T00:09:32.549Z,16.50
2018-04-17T00:10:38.459Z,24.50
2018-04-17T00:11:43.238Z,20.00
2018-04-17T00:12:47.991Z,19.50
2018-04-17T00:13:52.692Z,21.50
2018-04-17T00:14:57.412Z,12.00
2018-04-17T00:16:02.684Z,20.00
2018-04-17T00:17:07.716Z,17.00
2018-04-17T00:18:14.123Z,17.00
2018-04-17T00:19:20.822Z,16.50
2018-04-17T00:20:27.071Z,19.50
2018-04-17T00:21:31.979Z,18.00
2018-04-17T00:22:36.842Z,17.00
2018-04-17T00:23:41.995Z,14.00
2018-04-17T00:24:48.332Z,18.00
2018-04-17T00:25:53.888Z,18.50
2018-04-17T00:26:58.653Z,17.00
2018-04-17T00:28:02.860Z,13.00
2018-04-17T00:29:07.330Z,15.50
2018-04-17T00:30:14.157Z,18.50
2018-04-17T00:31:18.901Z,20.00
2018-04-17T00:32:23.016Z,14.00
2018-04-17T00:33:28.403Z,22.00
2018-04-17T00:34:33.011Z,17.00
2018-04-17T00:35:39.027Z,17.00
2018-04-17T00:36:44.775Z,15.00
2018-04-17T00:37:51.883Z,22.50
2018-04-17T00:38:57.386Z,19.50
2018-04-17T00:40:02.349Z,19.00
2018-04-17T00:41:07.727Z,17.00
2018-04-17T00:42:12.912Z,16.00
2018-04-17T00:43:19.198Z,24.00
2018-04-17T00:44:25.001Z,20.00
2018-04-17T00:45:29.491Z,24.00
2018-04-17T00:46:34.629Z,18.00
2018-04-17T00:47:40.649Z,16.50
2018-04-17T00:48:45.838Z,17.00
2018-04-17T00:49:51.067Z,18.50
2018-04-17T00:50:57.207Z,16.00
2018-04-17T00:52:03.166Z,18.50
2018-04-17T00:53:16.981Z,17.00
2018-04-17T00:54:23.865Z,27.50
2018-04-17T00:55:30.496Z,18.00
2018-04-17T00:56:35.587Z,15.50
2018-04-17T00:57:40.359Z,23.50
2018-04-17T00:58:45.638Z,18.00
2018-04-17T00:59:50.371Z,19.00
2018-04-17T01:00:54.973Z,22.00
2018-04-17T01:01:59.119Z,14.50
2018-04-17T01:03:03.817Z,20.00
2018-04-17T01:04:08.547Z,17.50
2018-04-17T01:05:13.923Z,18.00
2018-04-17T01:06:18.774Z,20.50
2018-04-17T01:07:26.928Z,19.50
2018-04-17T01:08:32.331Z,18.50
2018-04-17T01:09:37.215Z,17.00
2018-04-17T01:10:41.315Z,14.50
2018-04-17T01:11:48.421Z,20.00
2018-04-17T01:12:53.156Z,17.50
2018-04-17T01:14:01.370Z,25.50
2018-04-17T01:15:08.175Z,16.00
2018-04-17T01:16:15.382Z,23.00
2018-04-17T01:17:19.937Z,20.00
2018-04-17T01:18:25.362Z,17.50
2018-04-17T01:19:30.161Z,16.50
2018-04-17T01:20:36.403Z,20.00
2018-04-17T01:21:40.616Z,14.00
2018-04-17T01:22:45.916Z,12.50
2018-04-17T01:23:51.183Z,16.00
2018-04-17T01:24:55.936Z,21.50
2018-04-17T01:26:00.692Z,17.50
2018-04-17T01:27:05.850Z,15.00
2018-04-17T01:28:11.110Z,19.50
2018-04-17T01:29:15.856Z,14.00
2018-04-17T01:30:21.737Z,16.00
2018-04-17T01:31:27.111Z,17.00
2018-04-17T01:32:32.273Z,18.50
2018-04-17T01:33:38.023Z,20.50
2018-04-17T01:34:42.839Z,12.50
2018-04-17T01:35:50.535Z,22.00
2018-04-17T01:36:56.158Z,19.00
2018-04-17T01:38:00.372Z,15.00
2018-04-17T01:39:04.798Z,14.50
2018-04-17T01:40:09.576Z,16.50
2018-04-17T01:41:15.031Z,16.00
2018-04-17T01:42:19.836Z,15.50
2018-04-17T01:43:25.026Z,14.00
2018-04-17T01:44:29.622Z,12.00
2018-04-17T01:45:35.532Z,19.00
2018-04-17T01:46:41.183Z,13.00
2018-04-17T01:47:46.707Z,16.00
2018-04-17T01:48:51.442Z,18.50
2018-04-17T01:49:56.857Z,24.00
2018-04-17T01:51:01.710Z,17.50
2018-04-17T01:52:06.687Z,22.00
2018-04-17T01:53:13.236Z,17.50
2018-04-17T01:54:26.397Z,21.00
2018-04-17T01:55:31.726Z,16.50
2018-04-17T01:56:37.105Z,19.50
2018-04-17T01:57:42.484Z,29.00
2018-04-17T01:58:48.466Z,16.00
2018-04-17T01:59:57.104Z,17.50
2018-04-17T02:01:02.981Z,20.00
2018-04-17T02:02:08.087Z,18.00
2018-04-17T02:03:13.651Z,19.50
2018-04-17T02:04:19.220Z,20.50
2018-04-17T02:05:24.309Z,21.50
2018-04-17T02:06:29.820Z,19.00
2018-04-17T02:07:34.476Z,17.50
2018-04-17T02:08:38.952Z,21.50
2018-04-17T02:09:44.432Z,20.50
2018-04-17T02:10:49.852Z,27.00
2018-04-17T02:11:54.608Z,20.50
2018-04-17T02:12:59.405Z,23.00
2018-04-17T02:14:04.463Z,24.00
2018-04-17T02:15:09.569Z,21.00
2018-04-17T02:16:15.671Z,26.00
2018-04-17T02:17:20.395Z,18.50
2018-04-17T02:18:26.399Z,20.00
2018-04-17T02:19:30.997Z,17.00
2018-04-17T02:20:36.673Z,16.00
2018-04-17T02:21:41.651Z,25.00
2018-04-17T02:22:54.152Z,14.50
2018-04-17T02:23:59.142Z,17.50
2018-04-17T02:25:04.328Z,16.00
2018-04-17T02:26:08.437Z,18.00
2018-04-17T02:27:13.040Z,19.50
2018-04-17T02:28:17.889Z,20.00
2018-04-17T02:29:22.650Z,21.00
2018-04-17T02:30:27.285Z,27.50
2018-04-17T02:31:34.281Z,22.00
2018-04-17T02:32:38.754Z,21.00
2018-04-17T02:33:43.567Z,22.50
2018-04-17T02:34:48.521Z,24.00
2018-04-17T02:35:53.456Z,26.00
2018-04-17T02:36:58.208Z,16.50
2018-04-17T02:38:03.305Z,21.50
2018-04-17T02:39:07.486Z,18.00
2018-04-17T02:40:12.282Z,20.50
2018-04-17T02:41:16.372Z,18.50
2018-04-17T02:42:22.498Z,14.00
2018-04-17T02:43:27.240Z,24.50
2018-04-17T02:44:32.365Z,12.50
2018-04-17T02:45:37.929Z,28.00
2018-04-17T02:46:42.709Z,24.00
2018-04-17T02:47:47.381Z,23.50
2018-04-17T02:48:53.568Z,23.50
2018-04-17T02:49:59.390Z,22.50
2018-04-17T02:51:04.345Z,19.50
2018-04-17T02:52:09.547Z,25.50
2018-04-17T02:53:14.927Z,26.50
2018-04-17T02:54:19.762Z,30.00
2018-04-17T02:56:39.909Z,25.00
2018-04-17T02:57:45.000Z,26.00
2018-04-17T02:58:50.601Z,21.50
2018-04-17T02:59:54.740Z,23.50
2018-04-17T03:00:59.770Z,30.00
2018-04-17T03:02:07.442Z,19.00
2018-04-17T03:03:12.151Z,17.00
2018-04-17T03:04:17.243Z,16.00
2018-04-17T03:05:22.012Z,16.00
2018-04-17T03:06:26.973Z,24.00
2018-04-17T03:07:32.438Z,16.00
2018-04-17T03:08:37.114Z,18.50
2018-04-17T03:09:41.588Z,24.00
2018-04-17T03:10:46.682Z,17.00
2018-04-17T03:11:50.791Z,19.00
2018-04-17T03:12:55.545Z,19.50
2018-04-17T03:14:03.095Z,13.00
2018-04-17T03:15:08.117Z,18.50
2018-04-17T03:16:12.506Z,22.50
2018-04-17T03:17:17.561Z,20.50
2018-04-17T03:18:23.179Z,21.00
2018-04-17T03:19:27.432Z,22.00
2018-04-17T03:20:31.519Z,19.50
2018-04-17T03:21:35.967Z,19.00
2018-04-17T03:22:40.385Z,18.50
2018-04-17T03:23:45.552Z,21.00
2018-04-17T03:24:50.387Z,17.00
2018-04-17T03:25:56.710Z,26.50
2018-04-17T03:27:00.921Z,21.00
2018-04-17T03:28:05.667Z,17.00
2018-04-17T03:29:10.849Z,23.50
2018-04-17T03:30:16.775Z,17.50
2018-04-17T03:31:23.224Z,24.50
2018-04-17T03:32:31.669Z,19.00
2018-04-17T03:33:36.412Z,18.00
2018-04-17T03:34:45.867Z,26.00
2018-04-17T03:35:53.151Z,23.00
2018-04-17T03:37:01.166Z,28.00
2018-04-17T03:38:06.536Z,25.50
2018-04-17T03:39:11.129Z,27.50
2018-04-17T03:40:19.430Z,28.00
2018-04-17T03:41:24.144Z,26.50
2018-04-17T03:42:28.953Z,19.50
2018-04-17T03:43:35.523Z,28.00
2018-04-17T03:44:40.388Z,29.50
2018-04-17T03:45:45.901Z,24.00
2018-04-17T03:46:51.288Z,23.50
2018-04-17T03:47:56.669Z,22.00
2018-04-17T03:49:01.198Z,25.00
2018-04-17T03:50:06.916Z,24.50
2018-04-17T03:51:12.015Z,24.00
2018-04-17T03:52:16.863Z,21.00
2018-04-17T03:53:25.508Z,27.50
2018-04-17T03:54:29.809Z,19.50
2018-04-17T03:55:36.559Z,24.00
2018-04-17T03:56:41.887Z,28.00
2018-04-17T03:57:46.606Z,22.50
2018-04-17T03:58:58.738Z,20.00
2018-04-17T04:00:05.841Z,28.00
2018-04-17T04:01:11.487Z,27.50
2018-04-17T04:02:16.801Z,29.50
2018-04-17T04:03:26.147Z,29.50
2018-04-17T04:04:31.552Z,26.50
2018-04-17T04:05:37.047Z,21.00
2018-04-17T04:06:42.437Z,28.00
2018-04-17T04:07:47.839Z,28.00
2018-04-17T04:08:57.115Z,24.00
2018-04-17T04:10:02.424Z,29.00
2018-04-17T04:11:07.249Z,23.00
2018-04-17T04:12:12.721Z,29.00
2018-04-17T04:13:16.923Z,30.00
2018-04-17T04:14:26.204Z,29.00
2018-04-17T04:15:30.624Z,41.50
2018-04-17T04:16:45.163Z,31.00
2018-04-17T04:18:00.067Z,24.00
2018-04-17T04:19:15.253Z,27.50
2018-04-17T04:20:31.466Z,33.00
2018-04-17T04:22:46.376Z,24.50
2018-04-17T04:25:10.287Z,32.00
2018-04-17T04:26:25.153Z,32.00
2018-04-17T04:27:29.950Z,24.00
2018-04-17T04:28:37.833Z,30.00
2018-04-17T04:29:43.383Z,26.50
2018-04-17T04:30:48.497Z,31.00
2018-04-17T04:31:54.050Z,32.00
2018-04-17T04:32:59.419Z,27.00
2018-04-17T04:34:05.232Z,29.50
2018-04-17T04:35:10.707Z,35.00
2018-04-17T04:36:14.868Z,30.00
2018-04-17T04:37:20.267Z,30.00
2018-04-17T04:38:27.103Z,27.00
2018-04-17T04:39:32.314Z,32.00
2018-04-17T04:40:38.311Z,36.00
2018-04-17T04:41:43.520Z,31.00
2018-04-17T04:42:48.235Z,33.00
2018-04-17T04:43:53.486Z,31.50
2018-04-17T04:44:59.125Z,30.50
2018-04-17T04:46:04.260Z,40.00
2018-04-17T04:47:08.962Z,31.00
2018-04-17T04:48:13.723Z,31.00
2018-04-17T04:49:18.455Z,33.00
2018-04-17T04:50:23.890Z,37.50
2018-04-17T04:51:28.713Z,33.00
2018-04-17T04:52:33.704Z,37.50
2018-04-17T04:53:39.507Z,32.00
2018-04-17T04:54:44.901Z,36.00
2018-04-17T04:55:52.657Z,39.50
2018-04-17T04:57:05.981Z,39.00
2018-04-17T04:58:11.366Z,34.00
2018-04-17T04:59:16.866Z,31.50
2018-04-17T05:00:21.491Z,41.00
2018-04-17T05:01:28.967Z,42.00
2018-04-17T05:02:33.106Z,37.50
2018-04-17T05:03:37.631Z,37.00
2018-04-17T05:04:43.180Z,36.00
2018-04-17T05:05:47.923Z,39.00
2018-04-17T05:06:53.313Z,39.00
2018-04-17T05:07:57.707Z,39.00
2018-04-17T05:09:01.875Z,33.50
2018-04-17T05:10:06.996Z,40.50
2018-04-17T05:11:12.915Z,39.00
2018-04-17T05:12:19.709Z,37.50
2018-04-17T05:13:26.454Z,44.00
2018-04-17T05:14:31.224Z,37.50
2018-04-17T05:15:37.416Z,43.00
2018-04-17T05:16:42.565Z,35.00
2018-04-17T05:17:47.401Z,38.50
2018-04-17T05:18:52.424Z,38.50
2018-04-17T05:19:58.850Z,35.00
2018-04-17T05:21:03.590Z,34.50
2018-04-17T05:22:08.374Z,39.50
2018-04-17T05:23:13.000Z,38.00
2018-04-17T05:24:17.848Z,44.00
2018-04-17T05:25:22.868Z,39.50
2018-04-17T05:26:27.616Z,41.50
2018-04-17T05:27:32.135Z,34.50
2018-04-17T05:28:37.540Z,45.50
2018-04-17T05:29:43.681Z,44.50
2018-04-17T05:30:48.639Z,45.00
2018-04-17T05:31:53.412Z,38.00
2018-04-17T05:32:59.394Z,37.00
2018-04-17T05:34:05.013Z,35.00
2018-04-17T05:35:10.659Z,38.00
2018-04-17T05:36:15.554Z,37.25
2018-04-17T05:37:20.316Z,34.00
2018-04-17T05:38:25.117Z,36.00
2018-04-17T05:39:31.487Z,33.00
2018-04-17T05:40:37.244Z,36.50
2018-04-17T05:41:42.191Z,37.00
2018-04-17T05:42:47.854Z,44.00
2018-04-17T05:43:52.232Z,28.50
2018-04-17T05:44:57.036Z,31.00
2018-04-17T05:46:03.143Z,41.00
2018-04-17T05:47:08.453Z,30.75
2018-04-17T05:48:15.458Z,39.50
2018-04-17T05:49:20.641Z,38.50
2018-04-17T05:50:27.140Z,40.00
2018-04-17T05:51:33.711Z,34.50
2018-04-17T05:52:39.707Z,35.00
2018-04-17T05:53:45.545Z,39.50
2018-04-17T05:54:49.674Z,24.00
2018-04-17T05:55:54.750Z,37.00
2018-04-17T05:57:00.411Z,35.25
2018-04-17T05:58:05.955Z,38.50
2018-04-17T05:59:10.464Z,36.00
2018-04-17T06:00:18.171Z,35.50
2018-04-17T06:01:22.990Z,33.00
2018-04-17T06:02:28.762Z,33.00
2018-04-17T06:03:35.397Z,33.50
2018-04-17T06:04:40.309Z,28.00
2018-04-17T06:05:47.587Z,36.00
2018-04-17T06:06:53.503Z,36.00
2018-04-17T06:08:05.683Z,40.50
2018-04-17T06:09:09.828Z,28.50
2018-04-17T06:10:15.381Z,34.75
2018-04-17T06:11:20.105Z,34.00
2018-04-17T06:12:25.491Z,34.00
2018-04-17T06:13:30.274Z,32.75
2018-04-17T06:14:35.398Z,29.50
2018-04-17T06:15:40.274Z,39.50
2018-04-17T06:16:46.534Z,35.00
2018-04-17T06:17:51.162Z,32.00
2018-04-17T06:18:58.577Z,34.00
2018-04-17T06:20:03.494Z,35.00
2018-04-17T06:21:09.185Z,31.00
2018-04-17T06:22:15.886Z,27.50
2018-04-17T06:23:20.904Z,25.00
2018-04-17T06:24:26.315Z,27.00
2018-04-17T06:25:31.310Z,23.25
2018-04-17T06:26:37.886Z,25.00
2018-04-17T06:27:43.862Z,30.50
2018-04-17T06:28:48.748Z,28.00
2018-04-17T06:29:54.257Z,28.50
2018-04-17T06:31:00.750Z,35.75
2018-04-17T06:32:06.410Z,26.00
2018-04-17T06:33:11.813Z,24.75
2018-04-17T06:34:16.026Z,25.00
2018-04-17T06:35:21.072Z,30.50
2018-04-17T06:36:26.872Z,25.50
2018-04-17T06:37:33.117Z,26.50
2018-04-17T06:38:42.129Z,27.00
2018-04-17T06:39:47.452Z,23.25
2018-04-17T06:40:53.174Z,24.50
2018-04-17T06:41:59.664Z,21.50
2018-04-17T06:43:03.886Z,27.50
2018-04-17T06:44:10.088Z,22.50
2018-04-17T06:45:16.558Z,31.50
2018-04-17T06:46:21.002Z,30.00
2018-04-17T06:47:26.385Z,22.50
2018-04-17T06:48:31.975Z,22.00
2018-04-17T06:49:36.772Z,26.50
2018-04-17T06:50:43.198Z,22.00
2018-04-17T06:51:47.766Z,22.00
2018-04-17T06:52:53.240Z,16.50
2018-04-17T06:53:57.378Z,23.50
2018-04-17T06:55:02.155Z,23.00
2018-04-17T06:56:07.058Z,24.50
2018-04-17T06:57:17.694Z,23.50
2018-04-17T06:58:23.982Z,25.00
2018-04-17T06:59:31.505Z,24.00
2018-04-17T07:00:37.624Z,23.50
2018-04-17T07:01:50.954Z,22.00
2018-04-17T07:02:55.835Z,23.50
2018-04-17T07:03:59.960Z,24.00
2018-04-17T07:05:04.912Z,30.00
2018-04-17T07:06:09.992Z,20.25
2018-04-17T07:07:14.205Z,20.75
2018-04-17T07:08:18.965Z,20.50
2018-04-17T07:09:24.287Z,25.50
2018-04-17T07:10:30.659Z,16.50
2018-04-17T07:11:36.315Z,21.75
2018-04-17T07:12:42.031Z,23.50
2018-04-17T07:13:47.652Z,22.00
2018-04-17T07:14:52.487Z,19.50
2018-04-17T07:15:58.657Z,26.75
2018-04-17T07:17:04.093Z,20.00
2018-04-17T07:18:08.986Z,17.00
2018-04-17T07:19:13.715Z,16.00
2018-04-17T07:20:19.450Z,21.50
2018-04-17T07:21:24.429Z,20.50
2018-04-17T07:22:28.567Z,20.00
2018-04-17T07:23:32.855Z,18.00
2018-04-17T07:24:38.249Z,25.00
2018-04-17T07:25:43.161Z,25.50
2018-04-17T07:26:48.732Z,16.50
2018-04-17T07:27:52.864Z,19.00
2018-04-17T07:28:58.602Z,26.00
2018-04-17T07:30:06.413Z,21.25
2018-04-17T07:31:12.239Z,22.75
2018-04-17T07:32:16.992Z,25.00
2018-04-17T07:33:23.974Z,21.00
2018-04-17T07:34:30.113Z,25.00
2018-04-17T07:35:34.993Z,31.00
2018-04-17T07:36:40.552Z,21.50
2018-04-17T07:37:46.162Z,21.00
2018-04-17T07:38:54.495Z,20.00
2018-04-17T07:40:00.120Z,18.00
2018-04-17T07:41:05.512Z,15.50
2018-04-17T07:42:10.875Z,17.50
2018-04-17T07:43:16.551Z,24.50
2018-04-17T07:44:21.697Z,26.00
2018-04-17T07:45:27.784Z,33.00
2018-04-17T07:46:33.103Z,18.00
2018-04-17T07:47:39.017Z,22.00
2018-04-17T07:48:49.058Z,17.50
2018-04-17T07:49:53.922Z,21.75
2018-04-17T07:50:59.128Z,23.00
2018-04-17T07:52:07.052Z,18.50
2018-04-17T07:53:11.167Z,18.00
2018-04-17T07:54:16.625Z,22.50
2018-04-17T07:55:22.170Z,16.50
2018-04-17T07:56:27.577Z,17.00
2018-04-17T07:57:39.650Z,12.75
2018-04-17T07:58:44.432Z,26.00
2018-04-17T07:59:49.682Z,17.50
2018-04-17T08:00:55.125Z,23.00
2018-04-17T08:02:01.409Z,18.00
2018-04-17T08:03:07.476Z,23.25
2018-04-17T08:04:12.075Z,16.00
2018-04-17T08:05:20.625Z,17.50
2018-04-17T08:06:28.044Z,24.00
2018-04-17T08:07:32.240Z,23.50
2018-04-17T08:08:36.984Z,25.25
2018-04-17T08:09:42.809Z,24.00
2018-04-17T08:10:47.204Z,15.00
2018-04-17T08:11:51.682Z,20.25
2018-04-17T08:12:57.757Z,21.00
2018-04-17T08:14:04.015Z,18.00
2018-04-17T08:15:09.354Z,13.50
2018-04-17T08:16:14.809Z,23.50
2018-04-17T08:17:20.325Z,22.25
2018-04-17T08:18:27.998Z,12.50
2018-04-17T08:19:32.910Z,14.50
2018-04-17T08:20:38.418Z,13.00
2018-04-17T08:21:43.347Z,12.50
2018-04-17T08:22:49.128Z,17.00
2018-04-17T08:23:53.948Z,13.50
2018-04-17T08:24:58.076Z,14.00
2018-04-17T08:26:10.095Z,12.00
2018-04-17T08:27:15.370Z,12.00
2018-04-17T08:28:20.507Z,11.00
2018-04-17T08:29:25.981Z,10.00
2018-04-17T08:30:31.676Z,18.00
2018-04-17T08:31:37.633Z,13.00
2018-04-17T08:32:43.345Z,14.50
2018-04-17T08:33:49.996Z,12.50
2018-04-17T08:34:54.847Z,19.00
2018-04-17T08:35:59.036Z,12.00
2018-04-17T08:37:04.760Z,10.50
2018-04-17T08:38:11.846Z,16.50
2018-04-17T08:39:27.389Z,10.50
2018-04-17T08:40:33.193Z,17.25
2018-04-17T08:41:37.636Z,14.50
2018-04-17T08:42:42.834Z,15.50
2018-04-17T08:43:47.009Z,14.50
2018-04-17T08:44:51.846Z,14.00
2018-04-17T08:45:57.607Z,17.25
2018-04-17T08:47:02.388Z,16.00
2018-04-17T08:48:08.199Z,18.25
2018-04-17T08:49:15.541Z,16.00
2018-04-17T08:50:21.054Z,15.50
2018-04-17T08:51:26.297Z,17.75
2018-04-17T08:52:31.753Z,17.50
2018-04-17T08:53:36.646Z,16.50
2018-04-17T08:54:41.530Z,14.00
2018-04-17T08:55:47.036Z,16.50
2018-04-17T08:56:52.641Z,16.50
2018-04-17T08:57:58.545Z,14.50
2018-04-17T08:59:05.458Z,17.25
2018-04-17T09:00:10.738Z,18.50
2018-04-17T09:01:16.231Z,27.00
2018-04-17T09:02:21.705Z,18.00
2018-04-17T09:03:26.615Z,12.50
2018-04-17T09:04:31.470Z,16.00
2018-04-17T09:05:36.977Z,15.50
2018-04-17T09:06:41.806Z,18.25
2018-04-17T09:07:47.320Z,17.50
2018-04-17T09:08:52.788Z,21.00
2018-04-17T09:09:57.011Z,18.50
2018-04-17T09:11:02.064Z,20.00
2018-04-17T09:12:19.988Z,12.50
2018-04-17T09:13:26.148Z,18.50
2018-04-17T09:14:30.274Z,15.00
2018-04-17T09:15:36.885Z,27.75
2018-04-17T09:16:41.707Z,15.25
2018-04-17T09:17:47.614Z,18.25
2018-04-17T09:18:53.275Z,23.25
2018-04-17T09:19:58.722Z,17.50
2018-04-17T09:21:04.140Z,21.50
2018-04-17T09:22:09.776Z,26.00
2018-04-17T09:23:15.412Z,25.50
2018-04-17T09:24:20.526Z,24.75
2018-04-17T09:25:26.354Z,25.50
2018-04-17T09:26:31.545Z,18.50
2018-04-17T09:27:36.373Z,21.00
2018-04-17T09:28:41.569Z,27.75
2018-04-17T09:29:47.330Z,35.00
2018-04-17T09:30:53.686Z,22.00
2018-04-17T09:31:58.497Z,19.25
2018-04-17T09:33:03.392Z,21.00
2018-04-17T09:34:08.152Z,27.00
2018-04-17T09:35:12.911Z,23.00
2018-04-17T09:36:18.457Z,22.00
2018-04-17T09:37:23.305Z,20.50
2018-04-17T09:38:31.964Z,34.50
2018-04-17T09:39:36.106Z,27.00
2018-04-17T09:40:41.369Z,30.25
2018-04-17T09:41:45.517Z,26.50
2018-04-17T09:42:50.987Z,27.00
2018-04-17T09:44:00.045Z,30.75
2018-04-17T09:45:16.634Z,29.25
2018-04-17T09:46:22.742Z,36.50
2018-04-17T09:47:27.952Z,30.50
2018-04-17T09:48:32.807Z,30.50
2018-04-17T09:49:46.641Z,23.00
2018-04-17T09:50:51.828Z,25.50
2018-04-17T09:51:58.916Z,23.00
2018-04-17T09:53:04.398Z,15.50
2018-04-17T09:54:09.208Z,16.75
2018-04-17T09:55:14.038Z,26.75
2018-04-17T09:56:19.140Z,31.00
2018-04-17T09:57:23.274Z,21.50
2018-04-17T09:58:31.319Z,22.50
2018-04-17T09:59:35.661Z,35.00
2018-04-17T10:00:44.639Z,32.75
2018-04-17T10:01:50.012Z,25.00
2018-04-17T10:02:55.164Z,20.50
2018-04-17T10:03:59.955Z,23.50
2018-04-17T10:05:06.460Z,25.00
2018-04-17T10:06:10.803Z,22.00
2018-04-17T10:07:14.960Z,24.75
2018-04-17T10:08:19.810Z,19.00
2018-04-17T10:09:24.614Z,26.00
2018-04-17T10:10:29.700Z,33.50
2018-04-17T10:11:34.570Z,33.50
2018-04-17T10:12:40.129Z,25.00
2018-04-17T10:13:45.438Z,27.50
2018-04-17T10:14:51.840Z,26.00
2018-04-17T10:15:57.778Z,23.00
2018-04-17T10:17:02.079Z,27.25
2018-04-17T10:18:08.414Z,19.00
2018-04-17T10:19:15.152Z,16.50
2018-04-17T10:20:23.781Z,26.00
2018-04-17T10:21:30.659Z,25.00
2018-04-17T10:22:34.876Z,27.00
2018-04-17T10:23:39.202Z,29.50
2018-04-17T10:24:45.284Z,28.50
2018-04-17T10:25:51.383Z,25.75
2018-04-17T10:26:56.560Z,33.50
2018-04-17T10:28:01.899Z,25.25
2018-04-17T10:29:07.235Z,24.75
2018-04-17T10:30:14.733Z,25.50
2018-04-17T10:31:20.265Z,32.00
2018-04-17T10:32:26.093Z,19.25
2018-04-17T10:33:31.891Z,20.00
2018-04-17T10:34:36.734Z,35.00
2018-04-17T10:35:42.247Z,37.50
2018-04-17T10:36:47.078Z,25.00
2018-04-17T10:37:53.258Z,18.75
2018-04-17T10:38:58.462Z,24.50
2018-04-17T10:40:02.954Z,23.00
2018-04-17T10:41:14.098Z,18.50
2018-04-17T10:42:24.082Z,22.00
2018-04-17T10:43:29.020Z,22.50
2018-04-17T10:44:41.356Z,25.25
2018-04-17T10:45:48.502Z,34.00
2018-04-17T10:46:54.078Z,23.00
2018-04-17T10:48:01.556Z,19.50
2018-04-17T10:49:07.158Z,19.00
2018-04-17T10:50:13.431Z,32.50
2018-04-17T10:51:18.388Z,24.00
2018-04-17T10:52:23.508Z,30.00
2018-04-17T10:53:28.383Z,32.00
2018-04-17T10:54:33.987Z,24.75
2018-04-17T10:55:39.655Z,26.75
2018-04-17T10:56:44.627Z,28.00
2018-04-17T10:57:49.502Z,20.00
2018-04-17T10:58:55.252Z,29.00
2018-04-17T11:00:01.273Z,20.50
2018-04-17T11:01:06.768Z,33.00
2018-04-17T11:02:12.220Z,35.25
2018-04-17T11:03:17.058Z,26.00
2018-04-17T11:04:22.082Z,25.00
2018-04-17T11:05:27.527Z,25.00
2018-04-17T11:06:33.564Z,34.00
2018-04-17T11:07:38.802Z,23.75
2018-04-17T11:08:43.999Z,28.25
2018-04-17T11:09:49.689Z,25.00
2018-04-17T11:10:54.551Z,18.00
2018-04-17T11:11:59.360Z,17.00
2018-04-17T11:13:04.687Z,22.25
2018-04-17T11:14:10.411Z,15.50
2018-04-17T11:15:18.435Z,22.25
2018-04-17T11:16:23.547Z,32.50
2018-04-17T11:17:28.346Z,19.50
2018-04-17T11:18:33.478Z,24.75
2018-04-17T11:19:39.018Z,27.50
2018-04-17T11:20:43.164Z,21.75
2018-04-17T11:21:48.044Z,33.75
2018-04-17T11:22:53.703Z,26.00
2018-04-17T11:23:58.842Z,25.00
2018-04-17T11:25:11.797Z,31.50
2018-04-17T11:26:16.748Z,25.25
2018-04-17T11:27:22.290Z,15.50
2018-04-17T11:28:27.144Z,26.25
2018-04-17T11:29:32.034Z,35.00
2018-04-17T11:30:37.866Z,33.00
2018-04-17T11:31:43.763Z,28.25
2018-04-17T11:32:48.078Z,24.00
2018-04-17T11:33:52.972Z,20.75
2018-04-17T11:34:59.597Z,32.75
2018-04-17T11:36:05.692Z,22.00
2018-04-17T11:37:11.653Z,21.25
2018-04-17T11:38:16.840Z,31.50
2018-04-17T11:39:23.595Z,33.00
2018-04-17T11:40:28.710Z,36.50
2018-04-17T11:41:33.356Z,31.00
2018-04-17T11:42:37.456Z,27.00
2018-04-17T11:43:42.840Z,33.00
2018-04-17T11:44:47.904Z,28.75
2018-04-17T11:45:52.793Z,33.50
2018-04-17T11:46:58.679Z,24.00
2018-04-17T11:48:04.206Z,33.50
2018-04-17T11:49:09.769Z,29.50
2018-04-17T11:50:14.545Z,19.00
2018-04-17T11:51:20.108Z,34.00
2018-04-17T11:52:25.257Z,32.00
2018-04-17T11:53:30.074Z,21.50
2018-04-17T11:54:35.229Z,19.50
2018-04-17T11:55:40.739Z,32.50
2018-04-17T11:56:47.208Z,32.25
2018-04-17T11:57:52.928Z,25.75
2018-04-17T11:58:59.527Z,40.00
2018-04-17T12:00:07.651Z,42.75
2018-04-17T12:01:14.600Z,29.00
2018-04-17T12:02:20.257Z,30.50
2018-04-17T12:03:25.439Z,30.75
2018-04-17T12:04:31.095Z,29.25
2018-04-17T12:05:35.428Z,35.50
2018-04-17T12:06:40.332Z,32.00
2018-04-17T12:07:46.235Z,32.50
2018-04-17T12:08:50.854Z,30.50
2018-04-17T12:09:57.586Z,24.75
2018-04-17T12:11:05.629Z,31.50
2018-04-17T12:12:10.475Z,28.25
2018-04-17T12:13:15.424Z,20.00
2018-04-17T12:14:20.919Z,35.75
2018-04-17T12:15:26.270Z,29.50
2018-04-17T12:16:31.953Z,33.75
2018-04-17T12:17:37.260Z,33.00
2018-04-17T12:18:44.125Z,34.75
2018-04-17T12:19:52.133Z,30.50
2018-04-17T12:20:57.817Z,36.00
2018-04-17T12:22:02.003Z,32.25
2018-04-17T12:23:07.405Z,32.25
2018-04-17T12:24:13.954Z,34.50
2018-04-17T12:25:18.132Z,38.00
2018-04-17T12:26:23.265Z,47.00
2018-04-17T12:27:28.947Z,34.00
2018-04-17T12:28:34.019Z,40.25
2018-04-17T12:29:39.551Z,37.00
2018-04-17T12:30:46.311Z,35.50
2018-04-17T12:31:51.979Z,35.50
2018-04-17T12:32:58.926Z,30.00
2018-04-17T12:34:03.904Z,35.50
2018-04-17T12:35:10.330Z,38.50
2018-04-17T12:36:15.909Z,28.50
2018-04-17T12:37:21.365Z,28.50
2018-04-17T12:38:26.393Z,26.00
2018-04-17T12:39:32.018Z,42.25
2018-04-17T12:40:37.506Z,34.75
2018-04-17T12:41:42.342Z,33.50
2018-04-17T12:42:48.243Z,30.50
2018-04-17T12:43:54.207Z,43.50
2018-04-17T12:45:00.780Z,32.50
2018-04-17T12:47:18.570Z,28.00
2018-04-17T12:48:24.666Z,34.00
2018-04-17T12:49:29.140Z,37.00
2018-04-17T12:50:34.660Z,38.00
2018-04-17T12:51:38.933Z,36.75
2018-04-17T12:52:44.796Z,36.00
2018-04-17T12:53:49.325Z,43.25
2018-04-17T12:54:55.807Z,37.25
2018-04-17T12:55:59.993Z,35.75
2018-04-17T12:57:04.785Z,33.25
2018-04-17T12:58:10.198Z,30.00
2018-04-17T12:59:15.149Z,35.00
2018-04-17T13:00:20.318Z,41.50
2018-04-17T13:01:25.472Z,46.00
2018-04-17T13:02:29.723Z,37.00
2018-04-17T13:03:34.629Z,31.50
2018-04-17T13:04:39.977Z,32.50
2018-04-17T13:05:44.930Z,38.00
2018-04-17T13:06:49.853Z,37.50
2018-04-17T13:07:55.807Z,28.25
2018-04-17T13:09:01.296Z,34.75
2018-04-17T13:10:06.201Z,26.00
2018-04-17T13:11:12.805Z,33.50
2018-04-17T13:12:18.031Z,25.00
2018-04-17T13:13:23.083Z,14.75
2018-04-17T13:14:27.880Z,28.00
2018-04-17T13:15:33.194Z,37.50
2018-04-17T13:16:39.585Z,33.50
2018-04-17T13:17:44.242Z,35.50
2018-04-17T13:18:49.334Z,39.00
2018-04-17T13:19:54.358Z,40.00
2018-04-17T13:20:59.776Z,36.50
2018-04-17T13:22:05.921Z,30.50
2018-04-17T13:23:11.502Z,40.00
2018-04-17T13:24:22.065Z,31.50
2018-04-17T13:25:26.843Z,36.50
2018-04-17T13:26:31.041Z,39.00
2018-04-17T13:27:36.119Z,43.50
2018-04-17T13:28:40.925Z,37.75
2018-04-17T13:29:46.552Z,36.50
2018-04-17T13:30:53.263Z,43.25
2018-04-17T13:31:59.155Z,35.50
2018-04-17T13:33:04.256Z,34.00
2018-04-17T13:34:09.343Z,32.00
2018-04-17T13:35:15.046Z,29.50
2018-04-17T13:36:19.987Z,33.50
2018-04-17T13:37:25.261Z,37.25
2018-04-17T13:38:30.045Z,34.75
2018-04-17T13:39:34.953Z,34.25
2018-04-17T13:40:41.489Z,37.50
2018-04-17T13:41:46.464Z,36.50
2018-04-17T13:42:52.182Z,30.50
2018-04-17T13:43:58.167Z,32.50
2018-04-17T13:45:04.624Z,30.00
2018-04-17T13:46:10.671Z,31.50
2018-04-17T13:47:15.780Z,40.25
2018-04-17T13:48:21.030Z,45.50
2018-04-17T13:49:25.219Z,40.00
2018-04-17T13:50:30.160Z,41.25
2018-04-17T13:51:37.094Z,32.75
2018-04-17T13:52:42.667Z,45.00
2018-04-17T13:53:47.909Z,38.25
2018-04-17T13:54:52.325Z,33.50
2018-04-17T13:55:58.283Z,46.50
2018-04-17T13:57:03.693Z,46.00
2018-04-17T13:58:09.604Z,37.75
2018-04-17T13:59:15.095Z,36.25
2018-04-17T14:00:20.400Z,46.50
2018-04-17T14:01:25.711Z,35.75
2018-04-17T14:02:30.641Z,35.75
2018-04-17T14:03:36.121Z,33.75
2018-04-17T14:04:41.176Z,29.00
2018-04-17T14:05:45.905Z,29.25
2018-04-17T14:06:51.725Z,32.00
2018-04-17T14:07:56.492Z,41.00
2018-04-17T14:09:01.349Z,42.00
2018-04-17T14:10:07.571Z,36.50
2018-04-17T14:11:12.591Z,32.50